createdAt,value
2019-04-11T00:00:50.603Z,101668.30
2019-04-11T00:01:56.343Z,101668.30
2019-04-11T00:03:02.875Z,101671.02
2019-04-11T00:04:08.282Z,101671.13
2019-04-11T00:05:13.400Z,101670.72
2019-04-11T00:06:19.257Z,101672.97
2019-04-11T00:07:24.632Z,101669.97
2019-04-11T00:08:30.194Z,101672.29
2019-04-11T00:09:35.150Z,101672.85
2019-04-11T00:10:41.554Z,101672.17
2019-04-11T00:11:46.758Z,101676.23
2019-04-11T00:12:52.080Z,101673.27
2019-04-11T00:13:57.811Z,101677.80
2019-04-11T00:15:04.277Z,101673.44
2019-04-11T00:16:09.476Z,101674.75
2019-04-11T00:17:14.647Z,101674.39
2019-04-11T00:18:20.783Z,101672.11
2019-04-11T00:19:27.286Z,101671.36
2019-04-11T00:20:32.555Z,101674.86
2019-04-11T00:21:38.066Z,101677.50
2019-04-11T00:22:44.213Z,101675.78
2019-04-11T00:23:50.202Z,101672.75
2019-04-11T00:24:55.537Z,101674.56
2019-04-11T00:26:00.608Z,101676.34
2019-04-11T00:27:05.845Z,101675.88
2019-04-11T00:28:10.856Z,101675.09
2019-04-11T00:29:16.415Z,101677.91
2019-04-11T00:30:21.669Z,101670.91
2019-04-11T00:31:26.652Z,101674.97
2019-04-11T00:32:31.656Z,101675.90
2019-04-11T00:33:36.695Z,101676.86
2019-04-11T00:34:42.721Z,101679.10
2019-04-11T00:35:48.101Z,101677.38
2019-04-11T00:36:53.168Z,101677.95
2019-04-11T00:37:59.327Z,101681.91
2019-04-11T00:39:07.683Z,101676.80
2019-04-11T00:40:13.139Z,101682.14
2019-04-11T00:41:18.139Z,101679.61
2019-04-11T00:42:23.138Z,101677.89
2019-04-11T00:43:35.292Z,101676.27
2019-04-11T00:44:34.821Z,101680.70
2019-04-11T00:45:40.201Z,101678.13
2019-04-11T00:46:45.347Z,101674.72
2019-04-11T00:47:50.392Z,101675.19
2019-04-11T00:48:55.614Z,101672.64
2019-04-11T00:50:01.015Z,101677.06
2019-04-11T00:51:07.587Z,101677.13
2019-04-11T00:52:12.746Z,101675.42
2019-04-11T00:53:18.918Z,101680.83
2019-04-11T00:54:24.793Z,101677.83
2019-04-11T00:55:31.368Z,101679.67
2019-04-11T00:56:36.772Z,101674.49
2019-04-11T00:57:43.156Z,101678.52
2019-04-11T00:58:49.855Z,101672.02
2019-04-11T00:59:55.043Z,101679.14
2019-04-11T01:01:00.019Z,101675.65
2019-04-11T01:02:05.807Z,101674.42
2019-04-11T01:03:11.750Z,101677.63
2019-04-11T01:04:17.933Z,101677.63
2019-04-11T01:05:23.558Z,101679.41
2019-04-11T01:06:30.014Z,101680.33
2019-04-11T01:07:35.321Z,101677.23
2019-04-11T01:08:40.551Z,101673.80
2019-04-11T01:09:45.677Z,101675.21
2019-04-11T01:10:51.743Z,101676.99
2019-04-11T01:11:56.850Z,101677.45
2019-04-11T01:13:01.882Z,101682.38
2019-04-11T01:14:07.847Z,101679.40
2019-04-11T01:15:15.460Z,101678.17
2019-04-11T01:16:28.911Z,101684.94
2019-04-11T01:17:33.906Z,101678.80
2019-04-11T01:18:38.966Z,101681.04
2019-04-11T01:19:44.294Z,101687.80
2019-04-11T01:20:49.684Z,101686.58
2019-04-11T01:21:55.206Z,101686.18
2019-04-11T01:23:00.620Z,101687.20
2019-04-11T01:24:06.988Z,101687.66
2019-04-11T01:25:14.727Z,101686.80
2019-04-11T01:26:19.724Z,101685.94
2019-04-11T01:27:25.762Z,101685.94
2019-04-11T01:28:31.047Z,101685.48
2019-04-11T01:29:36.192Z,101685.94
2019-04-11T01:30:47.210Z,101688.67
2019-04-11T01:31:55.931Z,101684.78
2019-04-11T01:33:00.999Z,101690.62
2019-04-11T01:34:06.479Z,101690.22
2019-04-11T01:35:13.004Z,101687.64
2019-04-11T01:36:18.556Z,101688.96
2019-04-11T01:37:23.944Z,101688.20
2019-04-11T01:38:30.425Z,101690.94
2019-04-11T01:39:49.561Z,101687.04
2019-04-11T01:40:54.743Z,101693.23
2019-04-11T01:42:00.748Z,101688.05
2019-04-11T01:43:06.060Z,101693.33
2019-04-11T01:44:12.188Z,101695.02
2019-04-11T01:45:19.133Z,101696.34
2019-04-11T01:46:24.478Z,101693.70
2019-04-11T01:47:47.603Z,101694.71
2019-04-11T01:49:04.195Z,101694.34
2019-04-11T01:50:10.578Z,101694.97
2019-04-11T01:51:15.818Z,101693.31
2019-04-11T01:52:20.787Z,101694.33
2019-04-11T01:53:26.836Z,101693.47
2019-04-11T01:54:32.176Z,101690.92
2019-04-11T01:55:37.286Z,101695.89
2019-04-11T01:56:42.303Z,101690.67
2019-04-11T01:57:47.477Z,101691.23
2019-04-11T01:58:53.111Z,101688.20
2019-04-11T01:59:58.274Z,101695.34
2019-04-11T02:01:12.593Z,101694.02
2019-04-11T02:02:41.025Z,101694.48
2019-04-11T02:04:07.820Z,101692.37
2019-04-11T02:05:19.054Z,101695.09
2019-04-11T02:06:24.282Z,101697.34
2019-04-11T02:07:29.342Z,101696.11
2019-04-11T02:08:35.529Z,101696.94
2019-04-11T02:09:40.704Z,101703.63
2019-04-11T02:10:46.101Z,101703.68
2019-04-11T02:11:52.020Z,101708.95
2019-04-11T02:12:57.448Z,101706.78
2019-04-11T02:14:12.082Z,101705.95
2019-04-11T02:15:10.289Z,101712.14
2019-04-11T02:16:15.434Z,101718.34
2019-04-11T02:17:20.514Z,101718.03
2019-04-11T02:18:25.958Z,101719.04
2019-04-11T02:19:30.889Z,101717.32
2019-04-11T02:20:36.886Z,101718.64
2019-04-11T02:21:42.282Z,101726.15
2019-04-11T02:22:54.962Z,101720.88
2019-04-11T02:24:19.443Z,101723.05
2019-04-11T02:25:52.743Z,101721.27
2019-04-11T02:27:14.759Z,101726.55
2019-04-11T02:28:20.807Z,101723.14
2019-04-11T02:29:25.891Z,101725.78
2019-04-11T02:30:33.967Z,101731.11
2019-04-11T02:31:40.121Z,101723.75
2019-04-11T02:32:47.357Z,101729.09
2019-04-11T02:33:55.112Z,101729.55
2019-04-11T02:35:02.442Z,101728.78
2019-04-11T02:36:07.982Z,101724.87
2019-04-11T02:37:15.294Z,101730.64
2019-04-11T02:38:21.372Z,101735.05
2019-04-11T02:39:30.762Z,101730.24
2019-04-11T02:40:36.645Z,101735.11
2019-04-11T02:41:42.290Z,101730.30
2019-04-11T02:42:47.663Z,101729.94
2019-04-11T02:43:52.999Z,101728.16
2019-04-11T02:45:13.223Z,101726.84
2019-04-11T02:46:17.274Z,101734.80
2019-04-11T02:47:16.209Z,101728.22
2019-04-11T02:48:20.698Z,101731.25
2019-04-11T02:49:27.764Z,101735.72
2019-04-11T02:50:34.431Z,101728.27
2019-04-11T02:51:40.274Z,101735.35
2019-04-11T02:52:47.221Z,101733.23
2019-04-11T02:53:54.274Z,101736.73
2019-04-11T02:55:00.793Z,101735.95
2019-04-11T02:56:06.880Z,101743.00
2019-04-11T02:57:14.139Z,101730.34
2019-04-11T02:58:20.576Z,101735.16
2019-04-11T02:59:27.328Z,101742.70
2019-04-11T03:00:33.650Z,101734.30
2019-04-11T03:01:39.970Z,101735.16
2019-04-11T03:02:45.169Z,101744.84
2019-04-11T03:03:51.969Z,101737.94
2019-04-11T03:04:57.679Z,101742.75
2019-04-11T03:06:04.470Z,101739.34
2019-04-11T03:07:09.929Z,101738.80
2019-04-11T03:08:18.942Z,101739.34
2019-04-11T03:09:24.022Z,101732.76
2019-04-11T03:10:29.086Z,101736.71
2019-04-11T03:11:34.645Z,101740.20
2019-04-11T03:12:40.566Z,101740.66
2019-04-11T03:13:50.442Z,101739.80
2019-04-11T03:15:13.003Z,101739.34
2019-04-11T03:16:19.236Z,101744.22
2019-04-11T03:17:18.895Z,101734.59
2019-04-11T03:18:35.592Z,101746.85
2019-04-11T03:19:37.462Z,101742.89
2019-04-11T03:20:37.114Z,101745.53
2019-04-11T03:21:41.196Z,101748.57
2019-04-11T03:22:48.809Z,101747.25
2019-04-11T03:23:51.943Z,101751.98
2019-04-11T03:24:58.403Z,101745.39
2019-04-11T03:26:05.298Z,101752.83
2019-04-11T03:27:11.986Z,101748.42
2019-04-11T03:28:22.687Z,101750.66
2019-04-11T03:29:26.565Z,101749.89
2019-04-11T03:30:49.002Z,101754.30
2019-04-11T03:33:42.961Z,101751.27
2019-04-11T03:35:51.258Z,101748.31
2019-04-11T03:37:00.561Z,101741.33
2019-04-11T03:37:38.053Z,101750.95
2019-04-11T03:38:44.129Z,101753.58
2019-04-11T03:39:53.149Z,101747.55
2019-04-11T03:40:50.565Z,101750.64
2019-04-11T03:41:59.896Z,101751.09
2019-04-11T03:43:04.062Z,101752.02
2019-04-11T03:44:04.325Z,101751.23
2019-04-11T03:45:26.398Z,101756.51
2019-04-11T03:46:29.219Z,101752.55
2019-04-11T03:47:33.856Z,101759.14
2019-04-11T03:48:40.883Z,101761.78
2019-04-11T03:49:43.230Z,101760.06
2019-04-11T03:50:40.202Z,101754.33
2019-04-11T03:51:47.878Z,101762.30
2019-04-11T03:52:53.914Z,101764.09
2019-04-11T03:54:01.077Z,101761.98
2019-04-11T03:55:08.328Z,101758.97
2019-04-11T03:56:14.110Z,101765.07
2019-04-11T03:57:21.505Z,101762.98
2019-04-11T03:58:29.230Z,101765.61
2019-04-11T03:59:36.601Z,101770.48
2019-04-11T04:00:43.975Z,101766.16
2019-04-11T04:01:50.646Z,101768.39
2019-04-11T04:02:57.595Z,101769.30
2019-04-11T04:04:03.402Z,101772.89
2019-04-11T04:05:10.606Z,101768.53
2019-04-11T04:06:16.979Z,101774.20
2019-04-11T04:07:24.243Z,101772.09
2019-04-11T04:08:31.318Z,101776.89
2019-04-11T04:09:37.392Z,101774.72
2019-04-11T04:11:04.027Z,101778.27
2019-04-11T04:12:11.409Z,101780.53
2019-04-11T04:13:18.965Z,101776.17
2019-04-11T04:14:30.534Z,101775.77
2019-04-11T04:16:09.922Z,101773.14
2019-04-11T04:17:35.911Z,101779.35
2019-04-11T04:18:52.185Z,101779.01
2019-04-11T04:20:29.069Z,101779.14
2019-04-11T04:21:43.784Z,101780.55
2019-04-11T04:23:07.628Z,101782.78
2019-04-11T04:24:37.870Z,101783.69
2019-04-11T04:25:42.766Z,101779.42
2019-04-11T04:26:48.464Z,101781.73
2019-04-11T04:27:54.704Z,101784.52
2019-04-11T04:29:02.094Z,101786.37
2019-04-11T04:30:08.610Z,101785.51
2019-04-11T04:31:16.268Z,101785.05
2019-04-11T04:32:23.217Z,101790.69
2019-04-11T04:33:30.640Z,101792.87
2019-04-11T04:34:36.703Z,101798.08
2019-04-11T04:35:42.926Z,101796.77
2019-04-11T04:36:49.692Z,101803.72
2019-04-11T04:37:56.940Z,101799.77
2019-04-11T04:39:04.190Z,101810.30
2019-04-11T04:40:31.214Z,101805.89
2019-04-11T04:41:30.980Z,101805.12
2019-04-11T04:42:33.312Z,101806.36
2019-04-11T04:43:36.509Z,101811.70
2019-04-11T04:44:42.899Z,101806.89
2019-04-11T04:46:03.384Z,101805.58
2019-04-11T04:47:09.191Z,101809.98
2019-04-11T04:48:07.271Z,101813.48
2019-04-11T04:49:09.163Z,101810.77
2019-04-11T04:50:14.869Z,101820.38
2019-04-11T04:51:20.674Z,101812.56
2019-04-11T04:52:28.042Z,101817.83
2019-04-11T04:53:35.015Z,101821.78
2019-04-11T04:54:41.005Z,101820.06
2019-04-11T04:55:47.854Z,101819.66
2019-04-11T04:56:54.515Z,101819.61
2019-04-11T04:58:00.271Z,101819.20
2019-04-11T04:59:07.101Z,101823.16
2019-04-11T05:00:14.852Z,101829.28
2019-04-11T05:01:21.743Z,101827.10
2019-04-11T05:02:28.241Z,101825.78
2019-04-11T05:03:34.602Z,101829.73
2019-04-11T05:04:40.313Z,101822.30
2019-04-11T05:05:46.550Z,101827.56
2019-04-11T05:06:52.928Z,101827.10
2019-04-11T05:08:00.422Z,101831.91
2019-04-11T05:09:06.744Z,101825.78
2019-04-11T05:10:13.455Z,101831.91
2019-04-11T05:11:18.690Z,101835.32
2019-04-11T05:12:23.632Z,101833.09
2019-04-11T05:13:30.218Z,101838.31
2019-04-11T05:14:37.229Z,101848.35
2019-04-11T05:15:43.583Z,101829.00
2019-04-11T05:16:50.416Z,101838.31
2019-04-11T05:17:55.683Z,101836.64
2019-04-11T05:19:04.520Z,101835.46
2019-04-11T05:20:09.864Z,101839.41
2019-04-11T05:21:14.974Z,101837.23
2019-04-11T05:22:19.929Z,101835.46
2019-04-11T05:23:25.501Z,101834.14
2019-04-11T05:24:30.677Z,101836.18
2019-04-11T05:25:36.955Z,101836.18
2019-04-11T05:26:42.192Z,101840.45
2019-04-11T05:27:47.577Z,101842.17
2019-04-11T05:28:53.020Z,101839.14
2019-04-11T05:29:58.495Z,101844.81
2019-04-11T05:31:03.845Z,101843.03
2019-04-11T05:32:09.436Z,101846.53
2019-04-11T05:33:14.833Z,101843.03
2019-04-11T05:34:20.278Z,101846.13
2019-04-11T05:35:25.314Z,101850.02
2019-04-11T05:36:30.498Z,101843.95
2019-04-11T05:37:36.341Z,101850.94
2019-04-11T05:38:42.216Z,101848.70
2019-04-11T05:39:48.233Z,101849.02
2019-04-11T05:40:54.458Z,101848.11
2019-04-11T05:41:59.723Z,101850.98
2019-04-11T05:43:05.902Z,101854.80
2019-04-11T05:44:11.055Z,101850.34
2019-04-11T05:45:20.855Z,101851.52
2019-04-11T05:46:31.088Z,101851.23
2019-04-11T05:47:29.811Z,101856.38
2019-04-11T05:48:43.786Z,101848.64
2019-04-11T05:50:06.505Z,101850.31
2019-04-11T05:51:10.935Z,101847.91
2019-04-11T05:52:16.093Z,101853.38
2019-04-11T05:53:21.426Z,101857.56
2019-04-11T05:54:28.585Z,101858.14
2019-04-11T05:55:41.352Z,101859.31
2019-04-11T05:56:48.709Z,101863.53
2019-04-11T05:57:52.425Z,101861.56
2019-04-11T05:59:02.222Z,101858.32
2019-04-11T06:00:09.690Z,101867.31
2019-04-11T06:01:24.283Z,101867.11
2019-04-11T06:02:51.788Z,101863.87
2019-04-11T06:04:00.306Z,101865.91
2019-04-11T06:05:33.202Z,101868.71
2019-04-11T06:07:01.614Z,101865.47
2019-04-11T06:08:09.899Z,101861.62
2019-04-11T06:09:20.899Z,101873.20
2019-04-11T06:10:46.490Z,101863.34
2019-04-11T06:12:11.670Z,101864.98
2019-04-11T06:13:20.469Z,101868.54
2019-04-11T06:14:33.301Z,101873.75
2019-04-11T06:15:43.654Z,101870.56
2019-04-11T06:16:54.046Z,101873.05
2019-04-11T06:17:56.853Z,101875.17
2019-04-11T06:19:30.480Z,101874.56
2019-04-11T06:20:45.214Z,101873.47
2019-04-11T06:21:53.441Z,101875.95
2019-04-11T06:23:17.806Z,101874.02
2019-04-11T06:24:44.722Z,101889.25
2019-04-11T06:26:18.852Z,101877.06
2019-04-11T06:27:49.525Z,101877.77
2019-04-11T06:28:59.197Z,101887.25
2019-04-11T06:30:44.106Z,101879.73
2019-04-11T06:32:14.471Z,101884.00
2019-04-11T06:33:30.014Z,101879.48
2019-04-11T06:34:38.070Z,101883.94
2019-04-11T06:35:58.411Z,101879.89
2019-04-11T06:37:33.992Z,101880.34
2019-04-11T06:39:01.187Z,101883.39
2019-04-11T06:40:13.397Z,101883.84
2019-04-11T06:41:36.892Z,101885.11
2019-04-11T06:42:47.716Z,101886.43
2019-04-11T06:44:04.839Z,101889.84
2019-04-11T06:45:27.972Z,101888.98
2019-04-11T06:46:55.793Z,101889.84
2019-04-11T06:48:13.613Z,101891.55
2019-04-11T06:49:26.615Z,101896.84
2019-04-11T06:50:43.882Z,101895.52
2019-04-11T06:51:56.751Z,101893.27
2019-04-11T06:53:02.361Z,101893.27
2019-04-11T06:54:21.078Z,101901.08
2019-04-11T06:56:01.710Z,101902.86
2019-04-11T06:57:10.483Z,101895.30
2019-04-11T06:58:23.430Z,101897.58
2019-04-11T06:59:32.856Z,101906.27
2019-04-11T07:00:41.049Z,101897.48
2019-04-11T07:01:47.604Z,101897.88
2019-04-11T07:02:55.764Z,101898.19
2019-04-11T07:04:05.061Z,101895.48
2019-04-11T07:05:10.790Z,101894.53
2019-04-11T07:06:19.602Z,101898.03
2019-04-11T07:07:28.843Z,101899.66
2019-04-11T07:08:40.601Z,101897.87
2019-04-11T07:09:57.697Z,101897.41
2019-04-11T07:11:05.932Z,101896.89
2019-04-11T07:12:24.498Z,101897.66
2019-04-11T07:13:37.746Z,101896.34
2019-04-11T07:14:47.557Z,101901.06
2019-04-11T07:15:55.273Z,101901.06
2019-04-11T07:17:18.890Z,101901.92
2019-04-11T07:18:41.340Z,101902.32
2019-04-11T07:20:04.500Z,101902.32
2019-04-11T07:21:11.871Z,101903.55
2019-04-11T07:22:36.830Z,101906.19
2019-04-11T07:23:59.870Z,101906.53
2019-04-11T07:25:22.957Z,101901.95
2019-04-11T07:26:31.106Z,101907.44
2019-04-11T07:27:36.658Z,101902.00
2019-04-11T07:29:04.598Z,101904.48
2019-04-11T07:30:27.490Z,101898.67
2019-04-11T07:31:58.525Z,101902.31
2019-04-11T07:33:22.623Z,101901.39
2019-04-11T07:34:45.742Z,101897.63
2019-04-11T07:36:08.590Z,101899.75
2019-04-11T07:37:28.122Z,101895.22
2019-04-11T07:38:41.000Z,101900.91
2019-04-11T07:40:17.931Z,101900.74
2019-04-11T07:41:43.495Z,101906.27
2019-04-11T07:43:13.239Z,101904.31
2019-04-11T07:44:17.588Z,101910.77
2019-04-11T07:45:29.934Z,101904.45
2019-04-11T07:46:53.744Z,101903.43
2019-04-11T07:48:07.135Z,101901.48
2019-04-11T07:49:12.143Z,101912.69
2019-04-11T07:50:19.512Z,101911.97
2019-04-11T07:51:29.306Z,101910.02
2019-04-11T07:52:39.930Z,101914.67
2019-04-11T07:53:48.135Z,101914.11
2019-04-11T07:54:55.749Z,101913.09
2019-04-11T07:56:03.269Z,101914.34
2019-04-11T07:57:12.984Z,101913.71
2019-04-11T07:58:27.205Z,101914.00
2019-04-11T07:59:55.731Z,101907.22
2019-04-11T08:01:19.029Z,101915.56
2019-04-11T08:02:53.184Z,101912.34
2019-04-11T08:04:20.206Z,101911.03
2019-04-11T08:05:50.803Z,101911.42
2019-04-11T08:07:28.171Z,101913.50
2019-04-11T08:08:41.222Z,101911.25
2019-04-11T08:09:50.727Z,101910.22
2019-04-11T08:11:15.796Z,101912.41
2019-04-11T08:12:23.643Z,101918.45
2019-04-11T08:13:34.542Z,101916.60
2019-04-11T08:15:02.337Z,101916.44
2019-04-11T08:16:26.777Z,101916.44
2019-04-11T08:17:40.072Z,101917.59
2019-04-11T08:18:50.936Z,101913.91
2019-04-11T08:20:15.265Z,101919.03
2019-04-11T08:21:48.426Z,101913.56
2019-04-11T08:22:57.173Z,101922.30
2019-04-11T08:24:04.520Z,101921.27
2019-04-11T08:25:29.316Z,101917.69
2019-04-11T08:26:59.264Z,101917.59
2019-04-11T08:28:09.239Z,101921.48
2019-04-11T08:29:15.682Z,101924.42
2019-04-11T08:30:22.538Z,101920.22
2019-04-11T08:32:05.693Z,101920.22
2019-04-11T08:33:10.879Z,101924.94
2019-04-11T08:34:17.241Z,101929.20
2019-04-11T08:35:44.381Z,101919.87
2019-04-11T08:37:07.439Z,101928.56
2019-04-11T08:38:18.521Z,101925.75
2019-04-11T08:39:37.407Z,101926.89
2019-04-11T08:41:01.410Z,101928.05
2019-04-11T08:42:39.152Z,101924.39
2019-04-11T08:43:45.544Z,101920.49
2019-04-11T08:44:52.134Z,101927.55
2019-04-11T08:46:07.238Z,101923.47
2019-04-11T08:47:14.494Z,101931.27
2019-04-11T08:48:19.623Z,101910.69
2019-04-11T08:49:32.070Z,101910.69
2019-04-11T08:50:40.798Z,101923.11
2019-04-11T08:51:46.066Z,101923.11
2019-04-11T08:53:06.616Z,101929.56
2019-04-11T08:54:40.151Z,101928.98
2019-04-11T08:56:00.494Z,101932.42
2019-04-11T08:57:04.637Z,101927.02
2019-04-11T08:58:22.604Z,101930.92
2019-04-11T08:59:53.638Z,101927.70
2019-04-11T09:02:16.456Z,101930.56
2019-04-11T09:03:44.098Z,101933.03
2019-04-11T09:05:13.692Z,101933.78
2019-04-11T09:06:18.699Z,101926.90
2019-04-11T09:07:29.604Z,101926.90
2019-04-11T09:09:00.159Z,101927.58
2019-04-11T09:10:24.162Z,101924.81
2019-04-11T09:11:33.087Z,101924.81
2019-04-11T09:12:40.743Z,101915.65
2019-04-11T09:14:08.163Z,101915.65
2019-04-11T09:15:45.383Z,101927.10
2019-04-11T09:17:01.782Z,101929.34
2019-04-11T09:18:12.239Z,101929.34
2019-04-11T09:19:37.528Z,101932.55
2019-04-11T09:21:04.379Z,101924.80
2019-04-11T09:22:28.984Z,101927.66
2019-04-11T09:23:35.680Z,101928.41
2019-04-11T09:25:15.119Z,101932.70
2019-04-11T09:26:38.119Z,101935.24
2019-04-11T09:27:44.912Z,101932.59
2019-04-11T09:28:53.448Z,101927.00
2019-04-11T09:30:02.487Z,101925.02
2019-04-11T09:31:42.188Z,101928.14
2019-04-11T09:33:08.916Z,101923.70
2019-04-11T09:34:31.965Z,101927.95
2019-04-11T09:35:37.448Z,101923.70
2019-04-11T09:37:01.591Z,101920.21
2019-04-11T09:38:06.709Z,101929.47
2019-04-11T09:39:19.148Z,101929.47
2019-04-11T09:40:58.796Z,101929.78
2019-04-11T09:42:23.008Z,101925.30
2019-04-11T09:43:31.785Z,101927.88
2019-04-11T09:44:53.063Z,101926.16
2019-04-11T09:46:21.959Z,101929.78
2019-04-11T09:48:08.522Z,101924.09
2019-04-11T09:49:27.062Z,101921.05
2019-04-11T09:50:53.258Z,101920.11
2019-04-11T09:52:03.037Z,101922.18
2019-04-11T09:53:08.247Z,101915.28
2019-04-11T09:54:17.696Z,101913.29
2019-04-11T09:55:33.255Z,101917.66
2019-04-11T09:57:00.329Z,101923.13
2019-04-11T09:58:11.536Z,101925.13
2019-04-11T09:59:22.911Z,101921.34
2019-04-11T10:00:47.395Z,101924.73
2019-04-11T10:02:02.760Z,101921.61
2019-04-11T10:03:15.716Z,101914.98
2019-04-11T10:04:21.139Z,101923.91
2019-04-11T10:05:36.751Z,101916.89
2019-04-11T10:06:59.159Z,101923.13
2019-04-11T10:08:39.658Z,101924.46
2019-04-11T10:10:04.548Z,101924.07
2019-04-11T10:11:30.320Z,101918.48
2019-04-11T10:12:54.205Z,101922.66
2019-04-11T10:14:05.361Z,101915.36
2019-04-11T10:15:11.440Z,101915.36
2019-04-11T10:16:35.827Z,101915.75
2019-04-11T10:17:59.101Z,101917.47
2019-04-11T10:19:11.731Z,101914.81
2019-04-11T10:20:18.319Z,101911.66
2019-04-11T10:21:24.717Z,101917.83
2019-04-11T10:22:48.975Z,101915.95
2019-04-11T10:24:18.594Z,101912.32
2019-04-11T10:25:37.344Z,101911.38
2019-04-11T10:26:46.271Z,101910.45
2019-04-11T10:28:29.698Z,101906.46
2019-04-11T10:29:57.021Z,101908.73
2019-04-11T10:31:22.368Z,101913.18
2019-04-11T10:32:30.933Z,101913.30
2019-04-11T10:33:55.521Z,101907.59
2019-04-11T10:35:26.132Z,101917.27
2019-04-11T10:36:59.205Z,101918.21
2019-04-11T10:38:05.708Z,101908.18
2019-04-11T10:39:33.775Z,101913.48
2019-04-11T10:41:04.180Z,101924.10
2019-04-11T10:42:12.524Z,101910.44
2019-04-11T10:43:18.433Z,101917.47
2019-04-11T10:44:36.086Z,101919.54
2019-04-11T10:46:03.209Z,101918.95
2019-04-11T10:47:14.458Z,101914.78
2019-04-11T10:48:32.603Z,101914.43
2019-04-11T10:49:50.553Z,101915.25
2019-04-11T10:51:13.048Z,101915.25
2019-04-11T10:52:30.857Z,101914.50
2019-04-11T10:53:35.980Z,101910.21
2019-04-11T10:54:42.066Z,101920.16
2019-04-11T10:56:10.614Z,101921.33
2019-04-11T10:57:47.009Z,101916.67
2019-04-11T11:00:15.721Z,101922.45
2019-04-11T11:01:32.379Z,101922.84
2019-04-11T11:03:09.591Z,101918.00
2019-04-11T11:04:18.020Z,101920.10
2019-04-11T11:05:24.295Z,101926.16
2019-04-11T11:06:29.981Z,101919.39
2019-04-11T11:07:35.106Z,101926.54
2019-04-11T11:09:02.572Z,101925.56
2019-04-11T11:10:20.250Z,101915.91
2019-04-11T11:11:30.376Z,101929.66
2019-04-11T11:12:41.513Z,101929.81
2019-04-11T11:14:10.221Z,101927.92
2019-04-11T11:15:19.840Z,101933.52
2019-04-11T11:16:30.519Z,101926.02
2019-04-11T11:18:35.102Z,101927.34
2019-04-11T11:19:54.030Z,101928.58
2019-04-11T11:20:55.741Z,101918.97
2019-04-11T11:22:25.247Z,101927.80
2019-04-11T11:23:49.335Z,101921.54
2019-04-11T11:25:28.863Z,101920.88
2019-04-11T11:26:35.691Z,101918.52
2019-04-11T11:27:41.622Z,101919.95
2019-04-11T11:29:08.417Z,101920.52
2019-04-11T11:30:31.456Z,101921.48
2019-04-11T11:31:42.794Z,101919.69
2019-04-11T11:32:49.677Z,101924.30
2019-04-11T11:33:56.548Z,101916.33
2019-04-11T11:35:24.074Z,101922.69
2019-04-11T11:36:44.091Z,101931.39
2019-04-11T11:37:53.437Z,101929.59
2019-04-11T11:39:17.510Z,101926.08
2019-04-11T11:40:42.409Z,101922.59
2019-04-11T11:42:06.236Z,101916.78
2019-04-11T11:43:18.941Z,101918.50
2019-04-11T11:44:27.219Z,101923.14
2019-04-11T11:45:39.673Z,101932.23
2019-04-11T11:47:06.855Z,101919.22
2019-04-11T11:48:35.577Z,101917.89
2019-04-11T11:49:51.700Z,101918.36
2019-04-11T11:50:50.470Z,101913.43
2019-04-11T11:52:15.174Z,101911.55
2019-04-11T11:53:41.302Z,101911.81
2019-04-11T11:54:49.635Z,101907.15
2019-04-11T11:55:55.693Z,101919.38
2019-04-11T11:57:04.633Z,101921.09
2019-04-11T11:58:27.942Z,101919.77
2019-04-11T11:59:40.736Z,101914.80
2019-04-11T12:00:49.014Z,101915.66
2019-04-11T12:02:06.342Z,101911.11
2019-04-11T12:03:31.038Z,101916.31
2019-04-11T12:05:07.866Z,101913.06
2019-04-11T12:06:12.690Z,101920.56
2019-04-11T12:07:20.920Z,101916.96
2019-04-11T12:08:46.595Z,101912.50
2019-04-11T12:10:09.655Z,101912.50
2019-04-11T12:11:15.705Z,101911.44
2019-04-11T12:12:25.639Z,101906.38
2019-04-11T12:14:02.017Z,101909.69
2019-04-11T12:15:45.548Z,101911.67
2019-04-11T12:17:06.818Z,101907.13
2019-04-11T12:18:32.937Z,101910.91
2019-04-11T12:20:04.830Z,101909.36
2019-04-11T12:21:05.628Z,101907.18
2019-04-11T12:22:10.875Z,101910.48
2019-04-11T12:23:43.838Z,101911.61
2019-04-11T12:24:44.755Z,101906.81
2019-04-11T12:25:49.889Z,101907.37
2019-04-11T12:27:10.213Z,101904.37
2019-04-11T12:28:27.602Z,101896.98
2019-04-11T12:29:47.945Z,101907.72
2019-04-11T12:30:57.962Z,101907.37
2019-04-11T12:32:04.093Z,101903.47
2019-04-11T12:33:37.440Z,101900.45
2019-04-11T12:35:06.039Z,101899.95
2019-04-11T12:36:15.038Z,101899.00
2019-04-11T12:37:25.493Z,101895.75
2019-04-11T12:38:55.594Z,101896.52
2019-04-11T12:40:31.834Z,101900.89
2019-04-11T12:42:05.214Z,101896.30
2019-04-11T12:43:10.872Z,101891.72
2019-04-11T12:44:49.949Z,101895.88
2019-04-11T12:46:13.912Z,101894.94
2019-04-11T12:47:33.944Z,101897.21
2019-04-11T12:48:42.510Z,101894.45
2019-04-11T12:50:21.956Z,101893.95
2019-04-11T12:51:55.005Z,101895.66
2019-04-11T12:53:17.559Z,101889.78
2019-04-11T12:54:27.209Z,101891.11
2019-04-11T12:55:56.995Z,101887.47
2019-04-11T12:57:27.033Z,101893.64
2019-04-11T12:58:36.073Z,101889.91
2019-04-11T12:59:41.088Z,101894.29
2019-04-11T13:01:17.400Z,101885.36
2019-04-11T13:02:40.064Z,101888.02
2019-04-11T13:04:18.143Z,101879.91
2019-04-11T13:05:23.853Z,101886.47
2019-04-11T13:06:46.681Z,101879.61
2019-04-11T13:08:10.740Z,101884.71
2019-04-11T13:09:27.803Z,101877.27
2019-04-11T13:10:35.708Z,101860.61
2019-04-11T13:11:42.700Z,101873.57
2019-04-11T13:12:59.774Z,101877.66
2019-04-11T13:14:23.160Z,101875.09
2019-04-11T13:15:37.677Z,101884.91
2019-04-11T13:16:44.122Z,101885.95
2019-04-11T13:17:57.934Z,101879.00
2019-04-11T13:19:17.090Z,101881.67
2019-04-11T13:20:47.350Z,101876.47
2019-04-11T13:22:07.756Z,101881.28
2019-04-11T13:23:26.537Z,101871.97
2019-04-11T13:25:02.499Z,101873.20
2019-04-11T13:26:37.177Z,101870.93
2019-04-11T13:27:48.838Z,101867.01
2019-04-11T13:29:02.457Z,101863.18
2019-04-11T13:30:28.102Z,101865.62
2019-04-11T13:31:50.893Z,101865.88
2019-04-11T13:32:57.920Z,101861.66
2019-04-11T13:34:04.370Z,101863.95
2019-04-11T13:35:29.071Z,101867.94
2019-04-11T13:36:56.346Z,101869.78
2019-04-11T13:38:13.092Z,101875.32
2019-04-11T13:39:18.134Z,101865.23
2019-04-11T13:40:40.671Z,101869.23
2019-04-11T13:41:53.930Z,101861.94
2019-04-11T13:43:16.593Z,101863.02
2019-04-11T13:44:27.717Z,101864.82
2019-04-11T13:45:33.116Z,101873.02
2019-04-11T13:46:57.145Z,101867.88
2019-04-11T13:48:20.174Z,101867.50
2019-04-11T13:49:43.387Z,101869.59
2019-04-11T13:50:48.907Z,101868.17
2019-04-11T13:52:28.166Z,101868.56
2019-04-11T13:54:01.118Z,101867.01
2019-04-11T13:55:32.023Z,101863.75
2019-04-11T13:56:52.091Z,101858.93
2019-04-11T13:58:16.176Z,101860.52
2019-04-11T13:59:46.585Z,101862.58
2019-04-11T14:01:03.265Z,101860.39
2019-04-11T14:02:16.218Z,101860.68